sensor_id;sensor_type;location;lat;lon;timestamp;temperature;humidity
19864;DHT22;10094;48.820;9.226;2023-04-24T00:03:21;12.40;99.90
19864;DHT22;10094;48.820;9.226;2023-04-24T00:10:04;12.50;99.90
19864;DHT22;10094;48.820;9.226;2023-04-24T00:16:47;12.60;99.90
19864;DHT22;10094;48.820;9.226;2023-04-24T00:23:30;12.60;99.90
19864;DHT22;10094;48.820;9.226;2023-04-24T00:30:12;12.70;99.90
19864;DHT22;10094;48.820;9.226;2023-04-24T00:36:55;12.70;99.90
19864;DHT22;10094;48.820;9.226;2023-04-24T00:43:37;12.70;99.90
19864;DHT22;10094;48.820;9.226;2023-04-24T00:50:21;12.80;99.90
19864;DHT22;10094;48.820;9.226;2023-04-24T00:57:05;12.80;99.90
19864;DHT22;10094;48.820;9.226;2023-04-24T01:03:49;12.80;99.90
19864;DHT22;10094;48.820;9.226;2023-04-24T01:10:33;12.80;99.90
19864;DHT22;10094;48.820;9.226;2023-04-24T01:17:16;12.90;99.90
19864;DHT22;10094;48.820;9.226;2023-04-24T01:23:59;12.90;99.90
19864;DHT22;10094;48.820;9.226;2023-04-24T01:30:41;12.80;99.90
19864;DHT22;10094;48.820;9.226;2023-04-24T01:37:24;12.90;99.90
19864;DHT22;10094;48.820;9.226;2023-04-24T01:44:07;12.80;99.90
19864;DHT22;10094;48.820;9.226;2023-04-24T01:50:50;12.80;99.90
19864;DHT22;10094;48.820;9.226;2023-04-24T01:57:33;12.70;99.90
19864;DHT22;10094;48.820;9.226;2023-04-24T02:04:15;12.70;99.90
19864;DHT22;10094;48.820;9.226;2023-04-24T02:10:58;12.60;99.90
19864;DHT22;10094;48.820;9.226;2023-04-24T02:17:40;12.50;99.90
19864;DHT22;10094;48.820;9.226;2023-04-24T02:24:22;12.50;99.90
19864;DHT22;10094;48.820;9.226;2023-04-24T02:31:05;12.40;99.90
19864;DHT22;10094;48.820;9.226;2023-04-24T02:37:48;12.50;99.90
19864;DHT22;10094;48.820;9.226;2023-04-24T02:44:30;12.60;99.90
19864;DHT22;10094;48.820;9.226;2023-04-24T02:51:13;12.60;99.90
19864;DHT22;10094;48.820;9.226;2023-04-24T02:57:55;12.60;99.90
19864;DHT22;10094;48.820;9.226;2023-04-24T03:04:37;12.30;99.90
19864;DHT22;10094;48.820;9.226;2023-04-24T03:11:20;12.10;99.90
19864;DHT22;10094;48.820;9.226;2023-04-24T03:18:02;11.90;99.90
19864;DHT22;10094;48.820;9.226;2023-04-24T03:24:45;11.90;99.90
19864;DHT22;10094;48.820;9.226;2023-04-24T03:31:30;11.80;99.90
19864;DHT22;10094;48.820;9.226;2023-04-24T03:38:13;11.70;99.90
19864;DHT22;10094;48.820;9.226;2023-04-24T03:45:15;11.70;99.90
19864;DHT22;10094;48.820;9.226;2023-04-24T03:52:02;11.70;99.90
19864;DHT22;10094;48.820;9.226;2023-04-24T03:58:45;11.70;99.90
19864;DHT22;10094;48.820;9.226;2023-04-24T04:05:27;11.60;99.90
19864;DHT22;10094;48.820;9.226;2023-04-24T04:12:11;11.60;99.90
19864;DHT22;10094;48.820;9.226;2023-04-24T04:18:55;11.60;99.90
19864;DHT22;10094;48.820;9.226;2023-04-24T04:25:37;11.60;99.90
19864;DHT22;10094;48.820;9.226;2023-04-24T04:32:20;11.80;99.90
19864;DHT22;10094;48.820;9.226;2023-04-24T04:39:03;12.00;99.90
19864;DHT22;10094;48.820;9.226;2023-04-24T04:46:02;11.90;99.90
19864;DHT22;10094;48.820;9.226;2023-04-24T04:52:59;12.00;99.90
19864;DHT22;10094;48.820;9.226;2023-04-24T04:59:47;12.00;99.90
19864;DHT22;10094;48.820;9.226;2023-04-24T05:06:40;11.90;99.90
19864;DHT22;10094;48.820;9.226;2023-04-24T05:13:23;11.90;99.90
19864;DHT22;10094;48.820;9.226;2023-04-24T05:20:24;11.90;99.90
19864;DHT22;10094;48.820;9.226;2023-04-24T05:27:07;11.90;99.90
19864;DHT22;10094;48.820;9.226;2023-04-24T05:33:53;11.90;99.90
19864;DHT22;10094;48.820;9.226;2023-04-24T05:40:37;11.90;99.90
19864;DHT22;10094;48.820;9.226;2023-04-24T05:47:19;12.00;99.90
19864;DHT22;10094;48.820;9.226;2023-04-24T05:54:04;12.10;99.90
19864;DHT22;10094;48.820;9.226;2023-04-24T06:00:47;12.30;99.90
19864;DHT22;10094;48.820;9.226;2023-04-24T06:07:30;12.70;99.90
19864;DHT22;10094;48.820;9.226;2023-04-24T06:14:17;12.90;99.90
19864;DHT22;10094;48.820;9.226;2023-04-24T06:21:22;12.90;99.90
19864;DHT22;10094;48.820;9.226;2023-04-24T06:28:05;13.30;99.90
19864;DHT22;10094;48.820;9.226;2023-04-24T06:34:47;17.40;99.90
19864;DHT22;10094;48.820;9.226;2023-04-24T06:41:30;22.10;91.20
19864;DHT22;10094;48.820;9.226;2023-04-24T06:48:12;23.90;86.70
19864;DHT22;10094;48.820;9.226;2023-04-24T06:55:00;25.50;82.60
19864;DHT22;10094;48.820;9.226;2023-04-24T07:01:43;26.30;78.20
19864;DHT22;10094;48.820;9.226;2023-04-24T07:08:25;23.60;79.20
19864;DHT22;10094;48.820;9.226;2023-04-24T07:15:08;23.90;79.60
19864;DHT22;10094;48.820;9.226;2023-04-24T07:21:51;22.30;79.70
19864;DHT22;10094;48.820;9.226;2023-04-24T07:28:33;19.10;87.30
19864;DHT22;10094;48.820;9.226;2023-04-24T07:35:16;16.90;93.10
19864;DHT22;10094;48.820;9.226;2023-04-24T07:41:58;15.80;95.20
19864;DHT22;10094;48.820;9.226;2023-04-24T07:48:41;15.90;94.30
19864;DHT22;10094;48.820;9.226;2023-04-24T07:55:23;18.10;89.60
19864;DHT22;10094;48.820;9.226;2023-04-24T08:02:09;18.60;87.50
19864;DHT22;10094;48.820;9.226;2023-04-24T08:08:51;18.90;82.90
19864;DHT22;10094;48.820;9.226;2023-04-24T08:15:34;18.10;81.80
19864;DHT22;10094;48.820;9.226;2023-04-24T08:22:17;18.90;80.50
19864;DHT22;10094;48.820;9.226;2023-04-24T08:28:59;21.80;76.50
19864;DHT22;10094;48.820;9.226;2023-04-24T08:35:41;22.40;74.90
19864;DHT22;10094;48.820;9.226;2023-04-24T08:42:24;22.70;76.00
19864;DHT22;10094;48.820;9.226;2023-04-24T08:49:08;23.90;73.60
19864;DHT22;10094;48.820;9.226;2023-04-24T08:55:51;22.90;73.40
19864;DHT22;10094;48.820;9.226;2023-04-24T09:02:36;18.50;76.90
19864;DHT22;10094;48.820;9.226;2023-04-24T09:09:18;17.70;80.00
19864;DHT22;10094;48.820;9.226;2023-04-24T09:16:01;18.30;79.50
19864;DHT22;10094;48.820;9.226;2023-04-24T09:22:45;17.50;81.90
19864;DHT22;10094;48.820;9.226;2023-04-24T09:29:27;16.00;90.30
19864;DHT22;10094;48.820;9.226;2023-04-24T09:36:11;14.90;96.50
19864;DHT22;10094;48.820;9.226;2023-04-24T09:42:57;14.80;96.50
19864;DHT22;10094;48.820;9.226;2023-04-24T09:49:43;15.40;93.60
19864;DHT22;10094;48.820;9.226;2023-04-24T09:56:26;18.10;87.00
19864;DHT22;10094;48.820;9.226;2023-04-24T10:03:09;17.60;85.40
19864;DHT22;10094;48.820;9.226;2023-04-24T10:09:52;16.90;86.60
19864;DHT22;10094;48.820;9.226;2023-04-24T10:16:35;17.00;83.10
19864;DHT22;10094;48.820;9.226;2023-04-24T10:23:17;18.50;81.60
19864;DHT22;10094;48.820;9.226;2023-04-24T10:30:01;19.60;77.30
19864;DHT22;10094;48.820;9.226;2023-04-24T10:36:54;18.50;74.30
19864;DHT22;10094;48.820;9.226;2023-04-24T10:43:39;17.20;77.00
19864;DHT22;10094;48.820;9.226;2023-04-24T10:50:22;16.30;79.40
19864;DHT22;10094;48.820;9.226;2023-04-24T11:04:04;15.70;83.60
19864;DHT22;10094;48.820;9.226;2023-04-24T11:10:58;15.70;83.10
19864;DHT22;10094;48.820;9.226;2023-04-24T11:17:42;15.60;82.20
19864;DHT22;10094;48.820;9.226;2023-04-24T11:24:25;15.80;84.70
19864;DHT22;10094;48.820;9.226;2023-04-24T11:31:34;16.00;83.80
19864;DHT22;10094;48.820;9.226;2023-04-24T11:38:18;16.40;80.50
19864;DHT22;10094;48.820;9.226;2023-04-24T11:45:11;16.80;80.00
19864;DHT22;10094;48.820;9.226;2023-04-24T11:51:57;16.60;80.50
19864;DHT22;10094;48.820;9.226;2023-04-24T11:58:42;16.20;82.50
19864;DHT22;10094;48.820;9.226;2023-04-24T12:05:26;15.80;90.70
19864;DHT22;10094;48.820;9.226;2023-04-24T12:12:11;15.90;87.50
19864;DHT22;10094;48.820;9.226;2023-04-24T12:18:54;16.60;84.50
19864;DHT22;10094;48.820;9.226;2023-04-24T12:25:38;16.80;82.60
19864;DHT22;10094;48.820;9.226;2023-04-24T12:32:21;16.00;85.60
19864;DHT22;10094;48.820;9.226;2023-04-24T12:39:14;15.80;85.80
19864;DHT22;10094;48.820;9.226;2023-04-24T12:45:57;15.70;86.80
19864;DHT22;10094;48.820;9.226;2023-04-24T12:52:41;15.10;87.60
19864;DHT22;10094;48.820;9.226;2023-04-24T12:59:24;15.40;87.60
19864;DHT22;10094;48.820;9.226;2023-04-24T13:06:06;15.40;87.50
19864;DHT22;10094;48.820;9.226;2023-04-24T13:12:49;15.00;91.10
19864;DHT22;10094;48.820;9.226;2023-04-24T13:19:36;14.90;98.30
19864;DHT22;10094;48.820;9.226;2023-04-24T13:26:19;14.90;98.70
19864;DHT22;10094;48.820;9.226;2023-04-24T13:33:01;14.90;97.30
19864;DHT22;10094;48.820;9.226;2023-04-24T13:39:45;15.40;96.40
19864;DHT22;10094;48.820;9.226;2023-04-24T13:46:27;16.00;91.80
19864;DHT22;10094;48.820;9.226;2023-04-24T13:53:10;15.80;91.80
19864;DHT22;10094;48.820;9.226;2023-04-24T13:59:52;15.40;91.20
19864;DHT22;10094;48.820;9.226;2023-04-24T14:06:34;15.00;97.80
19864;DHT22;10094;48.820;9.226;2023-04-24T14:13:17;15.10;99.90
19864;DHT22;10094;48.820;9.226;2023-04-24T14:19:59;15.50;99.90
19864;DHT22;10094;48.820;9.226;2023-04-24T14:26:44;15.60;96.90
19864;DHT22;10094;48.820;9.226;2023-04-24T14:33:26;16.00;94.20
19864;DHT22;10094;48.820;9.226;2023-04-24T14:40:09;16.00;92.00
19864;DHT22;10094;48.820;9.226;2023-04-24T14:47:12;16.20;93.30
19864;DHT22;10094;48.820;9.226;2023-04-24T14:53:54;15.60;92.20
19864;DHT22;10094;48.820;9.226;2023-04-24T15:00:38;15.30;93.50
19864;DHT22;10094;48.820;9.226;2023-04-24T15:07:20;15.40;93.90
19864;DHT22;10094;48.820;9.226;2023-04-24T15:14:02;15.30;93.50
19864;DHT22;10094;48.820;9.226;2023-04-24T15:20:45;15.20;93.50
19864;DHT22;10094;48.820;9.226;2023-04-24T15:27:42;14.60;94.10
19864;DHT22;10094;48.820;9.226;2023-04-24T15:34:25;14.70;93.50
19864;DHT22;10094;48.820;9.226;2023-04-24T15:41:07;14.70;93.90
19864;DHT22;10094;48.820;9.226;2023-04-24T15:47:50;14.20;99.90
19864;DHT22;10094;48.820;9.226;2023-04-24T15:54:32;14.20;99.90
19864;DHT22;10094;48.820;9.226;2023-04-24T16:01:15;14.20;99.90
19864;DHT22;10094;48.820;9.226;2023-04-24T16:07:57;14.50;99.90
19864;DHT22;10094;48.820;9.226;2023-04-24T16:14:40;14.40;99.90
19864;DHT22;10094;48.820;9.226;2023-04-24T16:21:22;14.30;99.90
19864;DHT22;10094;48.820;9.226;2023-04-24T16:28:05;14.40;99.90
19864;DHT22;10094;48.820;9.226;2023-04-24T16:34:48;14.40;99.90
19864;DHT22;10094;48.820;9.226;2023-04-24T16:41:30;14.30;99.90
19864;DHT22;10094;48.820;9.226;2023-04-24T16:48:12;14.20;99.90
19864;DHT22;10094;48.820;9.226;2023-04-24T16:54:55;13.90;99.90
19864;DHT22;10094;48.820;9.226;2023-04-24T17:01:37;14.10;99.90
19864;DHT22;10094;48.820;9.226;2023-04-24T17:08:19;14.20;99.90
19864;DHT22;10094;48.820;9.226;2023-04-24T17:15:04;14.00;99.70
19864;DHT22;10094;48.820;9.226;2023-04-24T17:21:46;13.90;99.40
19864;DHT22;10094;48.820;9.226;2023-04-24T17:28:30;14.10;99.60
19864;DHT22;10094;48.820;9.226;2023-04-24T17:35:13;14.00;98.20
19864;DHT22;10094;48.820;9.226;2023-04-24T17:41:56;13.90;95.60
19864;DHT22;10094;48.820;9.226;2023-04-24T17:48:39;13.60;95.30
19864;DHT22;10094;48.820;9.226;2023-04-24T17:55:21;13.50;95.10
19864;DHT22;10094;48.820;9.226;2023-04-24T18:02:04;13.50;95.30
19864;DHT22;10094;48.820;9.226;2023-04-24T18:08:47;13.40;95.80
19864;DHT22;10094;48.820;9.226;2023-04-24T18:15:29;13.30;96.40
19864;DHT22;10094;48.820;9.226;2023-04-24T18:22:12;13.30;97.10
19864;DHT22;10094;48.820;9.226;2023-04-24T18:28:54;13.20;97.70
19864;DHT22;10094;48.820;9.226;2023-04-24T18:35:37;13.20;98.40
19864;DHT22;10094;48.820;9.226;2023-04-24T18:42:19;13.20;98.60
19864;DHT22;10094;48.820;9.226;2023-04-24T18:49:02;13.20;98.50
19864;DHT22;10094;48.820;9.226;2023-04-24T18:55:44;13.10;98.50
19864;DHT22;10094;48.820;9.226;2023-04-24T19:02:27;12.90;99.30
19864;DHT22;10094;48.820;9.226;2023-04-24T19:09:10;12.70;99.80
19864;DHT22;10094;48.820;9.226;2023-04-24T19:15:52;12.50;99.90
19864;DHT22;10094;48.820;9.226;2023-04-24T19:22:34;12.40;99.90
19864;DHT22;10094;48.820;9.226;2023-04-24T19:29:17;12.20;99.90
19864;DHT22;10094;48.820;9.226;2023-04-24T19:36:00;12.00;99.90
19864;DHT22;10094;48.820;9.226;2023-04-24T19:42:42;11.90;99.90
19864;DHT22;10094;48.820;9.226;2023-04-24T19:49:26;11.90;99.90
19864;DHT22;10094;48.820;9.226;2023-04-24T19:56:08;11.90;99.90
19864;DHT22;10094;48.820;9.226;2023-04-24T20:02:50;11.90;99.90
19864;DHT22;10094;48.820;9.226;2023-04-24T20:09:33;11.90;99.90
19864;DHT22;10094;48.820;9.226;2023-04-24T20:16:16;11.60;99.90
19864;DHT22;10094;48.820;9.226;2023-04-24T20:22:59;11.40;99.90
19864;DHT22;10094;48.820;9.226;2023-04-24T20:29:41;11.40;99.90
19864;DHT22;10094;48.820;9.226;2023-04-24T20:36:23;11.10;99.90
19864;DHT22;10094;48.820;9.226;2023-04-24T20:43:07;11.00;99.90
19864;DHT22;10094;48.820;9.226;2023-04-24T20:49:49;10.90;99.90
19864;DHT22;10094;48.820;9.226;2023-04-24T20:56:32;10.90;99.90
19864;DHT22;10094;48.820;9.226;2023-04-24T21:03:14;10.80;99.90
19864;DHT22;10094;48.820;9.226;2023-04-24T21:09:57;10.70;99.90
19864;DHT22;10094;48.820;9.226;2023-04-24T21:16:39;10.50;99.90
19864;DHT22;10094;48.820;9.226;2023-04-24T21:23:21;10.30;99.90
19864;DHT22;10094;48.820;9.226;2023-04-24T21:30:05;10.30;99.90
19864;DHT22;10094;48.820;9.226;2023-04-24T21:36:47;10.30;99.90
19864;DHT22;10094;48.820;9.226;2023-04-24T21:43:30;10.30;99.90
19864;DHT22;10094;48.820;9.226;2023-04-24T21:50:32;10.20;99.90
19864;DHT22;10094;48.820;9.226;2023-04-24T21:57:14;10.20;99.90
19864;DHT22;10094;48.820;9.226;2023-04-24T22:03:56;10.30;99.90
19864;DHT22;10094;48.820;9.226;2023-04-24T22:10:39;10.60;99.90
19864;DHT22;10094;48.820;9.226;2023-04-24T22:17:21;10.60;99.90
19864;DHT22;10094;48.820;9.226;2023-04-24T22:24:05;10.50;99.90
19864;DHT22;10094;48.820;9.226;2023-04-24T22:30:48;10.40;99.90
19864;DHT22;10094;48.820;9.226;2023-04-24T22:37:30;10.60;99.90
19864;DHT22;10094;48.820;9.226;2023-04-24T22:44:12;10.40;99.90
19864;DHT22;10094;48.820;9.226;2023-04-24T22:50:55;10.60;99.90
19864;DHT22;10094;48.820;9.226;2023-04-24T22:57:37;10.60;99.90
19864;DHT22;10094;48.820;9.226;2023-04-24T23:04:20;10.50;99.90
19864;DHT22;10094;48.820;9.226;2023-04-24T23:11:03;10.40;99.90
19864;DHT22;10094;48.820;9.226;2023-04-24T23:17:45;10.40;99.90
19864;DHT22;10094;48.820;9.226;2023-04-24T23:24:28;10.60;99.90
19864;DHT22;10094;48.820;9.226;2023-04-24T23:31:10;10.70;99.90
19864;DHT22;10094;48.820;9.226;2023-04-24T23:37:53;10.70;99.90
19864;DHT22;10094;48.820;9.226;2023-04-24T23:44:37;10.70;99.90
19864;DHT22;10094;48.820;9.226;2023-04-24T23:51:19;10.60;99.90
19864;DHT22;10094;48.820;9.226;2023-04-24T23:58:01;10.70;99.90
